Indian Head Park, Illinois
Current Conditions -  °F | °C
As of 10:53 AM on Sunday 23 Nov 2014 (Local Time) from KMDW Reporting Station
Light Rain Light Rain  
Wind Chill: 53°   Ceiling: 1700
Heat Index: 53°   Visibility: 10mi
Dew Point: 46°   Wind: 12mph
Humidity: 77%   Direction: 190°S
Pressure: 29.69"   Gusts: NA
Location:  41.7814°N, 87.8717°W
Report Text: KMDW 231653Z 19010KT 10SM -RA BKN017 BKN033 OVC070 12/08 A2969 RMK AO2 SLP055 P0000 T01170078
Loading
Personal Weather Stations






























Interactive Weather Map New forecast layout! Learn more

10-Day Weather Forecast

Advertisements
Track Severe Weather on mobile